sensor_id;sensor_type;location;lat;lon;timestamp;P1;durP1;ratioP1;P2;durP2;ratioP2
27199;SDS011;14714;48.106;11.546;2023-12-28T00:02:14;4.47;;;2.20;;
27199;SDS011;14714;48.106;11.546;2023-12-28T00:04:42;3.88;;;2.10;;
27199;SDS011;14714;48.106;11.546;2023-12-28T00:07:08;4.75;;;2.65;;
27199;SDS011;14714;48.106;11.546;2023-12-28T00:09:35;5.80;;;2.35;;
27199;SDS011;14714;48.106;11.546;2023-12-28T00:12:02;4.90;;;2.65;;
27199;SDS011;14714;48.106;11.546;2023-12-28T00:14:30;3.22;;;2.20;;
27199;SDS011;14714;48.106;11.546;2023-12-28T00:16:56;4.65;;;2.53;;
27199;SDS011;14714;48.106;11.546;2023-12-28T00:19:23;3.78;;;2.40;;
27199;SDS011;14714;48.106;11.546;2023-12-28T00:21:50;4.78;;;2.30;;
27199;SDS011;14714;48.106;11.546;2023-12-28T00:24:20;4.95;;;2.50;;
27199;SDS011;14714;48.106;11.546;2023-12-28T00:26:47;3.97;;;2.40;;
27199;SDS011;14714;48.106;11.546;2023-12-28T00:29:14;4.30;;;2.25;;
27199;SDS011;14714;48.106;11.546;2023-12-28T00:31:41;4.30;;;2.30;;
27199;SDS011;14714;48.106;11.546;2023-12-28T00:34:08;3.50;;;2.28;;
27199;SDS011;14714;48.106;11.546;2023-12-28T00:36:36;7.25;;;2.90;;
27199;SDS011;14714;48.106;11.546;2023-12-28T00:39:03;3.97;;;2.47;;
27199;SDS011;14714;48.106;11.546;2023-12-28T00:41:30;3.75;;;2.30;;
27199;SDS011;14714;48.106;11.546;2023-12-28T00:43:57;4.10;;;2.55;;
27199;SDS011;14714;48.106;11.546;2023-12-28T00:46:23;5.53;;;2.58;;
27199;SDS011;14714;48.106;11.546;2023-12-28T00:48:50;4.93;;;2.50;;
27199;SDS011;14714;48.106;11.546;2023-12-28T00:51:17;4.35;;;2.50;;
27199;SDS011;14714;48.106;11.546;2023-12-28T00:53:44;5.15;;;2.83;;
27199;SDS011;14714;48.106;11.546;2023-12-28T00:56:11;6.13;;;2.75;;
27199;SDS011;14714;48.106;11.546;2023-12-28T00:58:39;6.30;;;2.63;;
27199;SDS011;14714;48.106;11.546;2023-12-28T01:01:06;5.22;;;2.50;;
27199;SDS011;14714;48.106;11.546;2023-12-28T01:03:33;3.60;;;2.50;;
27199;SDS011;14714;48.106;11.546;2023-12-28T01:06:01;5.10;;;2.58;;
27199;SDS011;14714;48.106;11.546;2023-12-28T01:08:28;3.85;;;2.58;;
27199;SDS011;14714;48.106;11.546;2023-12-28T01:10:55;8.13;;;2.58;;
27199;SDS011;14714;48.106;11.546;2023-12-28T01:13:22;5.35;;;2.80;;
27199;SDS011;14714;48.106;11.546;2023-12-28T01:15:49;3.70;;;2.28;;
27199;SDS011;14714;48.106;11.546;2023-12-28T01:18:16;3.55;;;2.42;;
27199;SDS011;14714;48.106;11.546;2023-12-28T01:20:44;5.05;;;2.47;;
27199;SDS011;14714;48.106;11.546;2023-12-28T01:23:10;6.15;;;2.90;;
27199;SDS011;14714;48.106;11.546;2023-12-28T01:25:37;6.32;;;2.85;;
27199;SDS011;14714;48.106;11.546;2023-12-28T01:28:04;5.63;;;3.08;;
27199;SDS011;14714;48.106;11.546;2023-12-28T01:30:31;5.57;;;3.17;;
27199;SDS011;14714;48.106;11.546;2023-12-28T01:33:00;4.80;;;2.60;;
27199;SDS011;14714;48.106;11.546;2023-12-28T01:35:27;3.78;;;2.70;;
27199;SDS011;14714;48.106;11.546;2023-12-28T01:37:54;4.32;;;2.45;;
27199;SDS011;14714;48.106;11.546;2023-12-28T01:40:21;4.43;;;2.55;;
27199;SDS011;14714;48.106;11.546;2023-12-28T01:42:48;4.63;;;2.65;;
27199;SDS011;14714;48.106;11.546;2023-12-28T01:45:15;4.45;;;2.72;;
27199;SDS011;14714;48.106;11.546;2023-12-28T01:47:42;4.90;;;2.70;;
27199;SDS011;14714;48.106;11.546;2023-12-28T01:50:10;4.90;;;2.70;;
27199;SDS011;14714;48.106;11.546;2023-12-28T01:52:37;5.22;;;2.60;;
27199;SDS011;14714;48.106;11.546;2023-12-28T01:55:04;6.13;;;3.20;;
27199;SDS011;14714;48.106;11.546;2023-12-28T01:57:32;4.90;;;2.92;;
27199;SDS011;14714;48.106;11.546;2023-12-28T02:00:00;5.78;;;2.90;;
27199;SDS011;14714;48.106;11.546;2023-12-28T02:02:30;5.23;;;2.97;;
27199;SDS011;14714;48.106;11.546;2023-12-28T02:04:57;3.80;;;2.35;;
27199;SDS011;14714;48.106;11.546;2023-12-28T02:07:25;5.47;;;2.63;;
27199;SDS011;14714;48.106;11.546;2023-12-28T02:09:52;5.78;;;3.00;;
27199;SDS011;14714;48.106;11.546;2023-12-28T02:12:19;6.00;;;3.15;;
27199;SDS011;14714;48.106;11.546;2023-12-28T02:14:46;5.18;;;2.83;;
27199;SDS011;14714;48.106;11.546;2023-12-28T02:17:15;6.82;;;3.30;;
27199;SDS011;14714;48.106;11.546;2023-12-28T02:19:55;4.43;;;2.75;;
27199;SDS011;14714;48.106;11.546;2023-12-28T02:22:24;5.22;;;2.75;;
27199;SDS011;14714;48.106;11.546;2023-12-28T02:24:59;4.78;;;2.78;;
27199;SDS011;14714;48.106;11.546;2023-12-28T02:27:42;5.72;;;3.00;;
27199;SDS011;14714;48.106;11.546;2023-12-28T02:30:14;4.18;;;2.75;;
27199;SDS011;14714;48.106;11.546;2023-12-28T02:35:45;3.95;;;2.30;;
27199;SDS011;14714;48.106;11.546;2023-12-28T02:38:32;4.22;;;2.47;;
27199;SDS011;14714;48.106;11.546;2023-12-28T02:41:01;3.58;;;2.50;;
27199;SDS011;14714;48.106;11.546;2023-12-28T02:43:29;4.40;;;2.55;;
27199;SDS011;14714;48.106;11.546;2023-12-28T02:45:56;4.38;;;2.70;;
27199;SDS011;14714;48.106;11.546;2023-12-28T02:48:23;5.07;;;2.67;;
27199;SDS011;14714;48.106;11.546;2023-12-28T02:50:50;6.63;;;2.80;;
27199;SDS011;14714;48.106;11.546;2023-12-28T02:53:17;5.63;;;2.72;;
27199;SDS011;14714;48.106;11.546;2023-12-28T02:55:44;6.13;;;2.88;;
27199;SDS011;14714;48.106;11.546;2023-12-28T02:58:11;4.75;;;2.42;;
27199;SDS011;14714;48.106;11.546;2023-12-28T03:00:38;3.83;;;2.47;;
27199;SDS011;14714;48.106;11.546;2023-12-28T03:03:05;6.63;;;2.80;;
27199;SDS011;14714;48.106;11.546;2023-12-28T03:05:32;4.13;;;2.65;;
27199;SDS011;14714;48.106;11.546;2023-12-28T03:07:59;4.07;;;2.50;;
27199;SDS011;14714;48.106;11.546;2023-12-28T03:10:26;3.70;;;2.30;;
27199;SDS011;14714;48.106;11.546;2023-12-28T03:12:54;6.45;;;2.60;;
27199;SDS011;14714;48.106;11.546;2023-12-28T03:15:21;4.55;;;2.70;;
27199;SDS011;14714;48.106;11.546;2023-12-28T03:17:48;4.18;;;2.72;;
27199;SDS011;14714;48.106;11.546;2023-12-28T03:20:15;3.83;;;2.60;;
27199;SDS011;14714;48.106;11.546;2023-12-28T03:22:42;5.65;;;3.00;;
27199;SDS011;14714;48.106;11.546;2023-12-28T03:25:09;3.83;;;2.35;;
27199;SDS011;14714;48.106;11.546;2023-12-28T03:27:36;3.78;;;2.72;;
27199;SDS011;14714;48.106;11.546;2023-12-28T03:30:03;4.45;;;2.38;;
27199;SDS011;14714;48.106;11.546;2023-12-28T03:32:31;5.47;;;2.80;;
27199;SDS011;14714;48.106;11.546;2023-12-28T03:34:57;3.15;;;2.10;;
27199;SDS011;14714;48.106;11.546;2023-12-28T03:37:24;3.30;;;2.03;;
27199;SDS011;14714;48.106;11.546;2023-12-28T03:39:51;3.28;;;2.10;;
27199;SDS011;14714;48.106;11.546;2023-12-28T03:42:18;3.47;;;2.17;;
27199;SDS011;14714;48.106;11.546;2023-12-28T03:44:45;4.07;;;2.08;;
27199;SDS011;14714;48.106;11.546;2023-12-28T03:47:12;2.92;;;1.70;;
27199;SDS011;14714;48.106;11.546;2023-12-28T03:49:39;3.05;;;2.10;;
27199;SDS011;14714;48.106;11.546;2023-12-28T03:52:06;6.15;;;2.20;;
27199;SDS011;14714;48.106;11.546;2023-12-28T03:54:33;3.83;;;2.10;;
27199;SDS011;14714;48.106;11.546;2023-12-28T03:57:00;3.20;;;1.83;;
27199;SDS011;14714;48.106;11.546;2023-12-28T03:59:27;3.00;;;2.00;;
27199;SDS011;14714;48.106;11.546;2023-12-28T04:01:54;2.30;;;1.42;;
27199;SDS011;14714;48.106;11.546;2023-12-28T04:04:21;3.00;;;1.65;;
27199;SDS011;14714;48.106;11.546;2023-12-28T04:06:48;2.38;;;1.55;;
27199;SDS011;14714;48.106;11.546;2023-12-28T04:09:14;4.88;;;2.45;;
27199;SDS011;14714;48.106;11.546;2023-12-28T04:11:41;2.10;;;1.58;;
27199;SDS011;14714;48.106;11.546;2023-12-28T04:14:08;2.58;;;1.70;;
27199;SDS011;14714;48.106;11.546;2023-12-28T04:16:35;2.67;;;1.60;;
27199;SDS011;14714;48.106;11.546;2023-12-28T04:19:02;2.75;;;1.50;;
27199;SDS011;14714;48.106;11.546;2023-12-28T04:21:29;3.22;;;1.60;;
27199;SDS011;14714;48.106;11.546;2023-12-28T04:23:56;2.03;;;1.45;;
27199;SDS011;14714;48.106;11.546;2023-12-28T04:26:23;2.30;;;1.58;;
27199;SDS011;14714;48.106;11.546;2023-12-28T04:28:50;5.15;;;1.77;;
27199;SDS011;14714;48.106;11.546;2023-12-28T04:31:17;2.70;;;1.70;;
27199;SDS011;14714;48.106;11.546;2023-12-28T04:33:45;2.15;;;1.67;;
27199;SDS011;14714;48.106;11.546;2023-12-28T04:36:12;3.42;;;1.80;;
27199;SDS011;14714;48.106;11.546;2023-12-28T04:38:39;2.83;;;1.70;;
27199;SDS011;14714;48.106;11.546;2023-12-28T04:41:06;2.13;;;1.60;;
27199;SDS011;14714;48.106;11.546;2023-12-28T04:43:32;2.72;;;1.67;;
27199;SDS011;14714;48.106;11.546;2023-12-28T04:46:03;3.67;;;1.50;;
27199;SDS011;14714;48.106;11.546;2023-12-28T04:48:31;1.98;;;1.50;;
27199;SDS011;14714;48.106;11.546;2023-12-28T04:50:58;2.50;;;1.48;;
27199;SDS011;14714;48.106;11.546;2023-12-28T04:53:28;2.40;;;1.50;;
27199;SDS011;14714;48.106;11.546;2023-12-28T04:55:55;2.53;;;1.50;;
27199;SDS011;14714;48.106;11.546;2023-12-28T04:58:22;3.58;;;1.60;;
27199;SDS011;14714;48.106;11.546;2023-12-28T05:00:49;1.83;;;1.40;;
27199;SDS011;14714;48.106;11.546;2023-12-28T05:03:16;2.25;;;1.60;;
27199;SDS011;14714;48.106;11.546;2023-12-28T05:05:43;3.45;;;1.45;;
27199;SDS011;14714;48.106;11.546;2023-12-28T05:08:10;4.43;;;1.55;;
27199;SDS011;14714;48.106;11.546;2023-12-28T05:10:37;2.20;;;1.30;;
27199;SDS011;14714;48.106;11.546;2023-12-28T05:13:04;2.38;;;1.63;;
27199;SDS011;14714;48.106;11.546;2023-12-28T05:15:31;1.52;;;1.20;;
27199;SDS011;14714;48.106;11.546;2023-12-28T05:17:58;1.92;;;1.48;;
27199;SDS011;14714;48.106;11.546;2023-12-28T05:20:25;1.92;;;1.40;;
27199;SDS011;14714;48.106;11.546;2023-12-28T05:22:52;2.15;;;1.35;;
27199;SDS011;14714;48.106;11.546;2023-12-28T05:25:19;1.70;;;1.33;;
27199;SDS011;14714;48.106;11.546;2023-12-28T05:27:46;2.10;;;1.40;;
27199;SDS011;14714;48.106;11.546;2023-12-28T05:30:13;2.60;;;1.40;;
27199;SDS011;14714;48.106;11.546;2023-12-28T05:32:40;1.83;;;1.30;;
27199;SDS011;14714;48.106;11.546;2023-12-28T05:35:07;2.08;;;1.50;;
27199;SDS011;14714;48.106;11.546;2023-12-28T05:37:34;2.28;;;1.50;;
27199;SDS011;14714;48.106;11.546;2023-12-28T05:40:01;3.10;;;1.75;;
27199;SDS011;14714;48.106;11.546;2023-12-28T05:42:29;2.72;;;1.55;;
27199;SDS011;14714;48.106;11.546;2023-12-28T05:44:56;2.88;;;1.60;;
27199;SDS011;14714;48.106;11.546;2023-12-28T05:47:22;4.22;;;1.80;;
27199;SDS011;14714;48.106;11.546;2023-12-28T05:49:50;2.15;;;1.55;;
27199;SDS011;14714;48.106;11.546;2023-12-28T05:52:18;2.63;;;1.70;;
27199;SDS011;14714;48.106;11.546;2023-12-28T05:54:46;2.78;;;1.60;;
27199;SDS011;14714;48.106;11.546;2023-12-28T05:57:14;1.95;;;1.45;;
27199;SDS011;14714;48.106;11.546;2023-12-28T05:59:42;2.75;;;1.70;;
27199;SDS011;14714;48.106;11.546;2023-12-28T06:02:09;3.45;;;1.75;;
27199;SDS011;14714;48.106;11.546;2023-12-28T06:04:36;3.40;;;1.73;;
27199;SDS011;14714;48.106;11.546;2023-12-28T06:07:04;3.08;;;1.67;;
27199;SDS011;14714;48.106;11.546;2023-12-28T06:09:31;1.83;;;1.50;;
27199;SDS011;14714;48.106;11.546;2023-12-28T06:11:59;2.60;;;1.80;;
27199;SDS011;14714;48.106;11.546;2023-12-28T06:14:26;2.25;;;1.60;;
27199;SDS011;14714;48.106;11.546;2023-12-28T06:16:53;2.42;;;1.73;;
27199;SDS011;14714;48.106;11.546;2023-12-28T06:19:20;3.17;;;1.77;;
27199;SDS011;14714;48.106;11.546;2023-12-28T06:21:47;3.78;;;1.70;;
27199;SDS011;14714;48.106;11.546;2023-12-28T06:24:15;2.83;;;1.80;;
27199;SDS011;14714;48.106;11.546;2023-12-28T06:26:42;1.90;;;1.50;;
27199;SDS011;14714;48.106;11.546;2023-12-28T06:29:10;2.78;;;1.70;;
27199;SDS011;14714;48.106;11.546;2023-12-28T06:31:37;3.05;;;1.83;;
27199;SDS011;14714;48.106;11.546;2023-12-28T06:34:04;2.35;;;1.50;;
27199;SDS011;14714;48.106;11.546;2023-12-28T06:36:32;2.78;;;1.80;;
27199;SDS011;14714;48.106;11.546;2023-12-28T06:39:00;2.50;;;1.75;;
27199;SDS011;14714;48.106;11.546;2023-12-28T06:41:27;2.40;;;1.75;;
27199;SDS011;14714;48.106;11.546;2023-12-28T06:43:54;3.22;;;1.70;;
27199;SDS011;14714;48.106;11.546;2023-12-28T06:46:21;7.35;;;1.80;;
27199;SDS011;14714;48.106;11.546;2023-12-28T06:48:48;3.30;;;1.90;;
27199;SDS011;14714;48.106;11.546;2023-12-28T06:51:19;4.45;;;1.83;;
27199;SDS011;14714;48.106;11.546;2023-12-28T06:53:46;2.80;;;1.88;;
27199;SDS011;14714;48.106;11.546;2023-12-28T06:56:15;4.10;;;2.17;;
27199;SDS011;14714;48.106;11.546;2023-12-28T06:58:42;3.38;;;1.90;;
27199;SDS011;14714;48.106;11.546;2023-12-28T07:01:09;4.50;;;2.40;;
27199;SDS011;14714;48.106;11.546;2023-12-28T07:03:37;5.55;;;2.17;;
27199;SDS011;14714;48.106;11.546;2023-12-28T07:06:05;4.95;;;2.25;;
27199;SDS011;14714;48.106;11.546;2023-12-28T07:08:32;5.30;;;2.55;;
27199;SDS011;14714;48.106;11.546;2023-12-28T07:11:02;8.60;;;2.58;;
27199;SDS011;14714;48.106;11.546;2023-12-28T07:13:30;8.40;;;2.35;;
27199;SDS011;14714;48.106;11.546;2023-12-28T07:15:57;8.95;;;2.35;;
27199;SDS011;14714;48.106;11.546;2023-12-28T07:18:26;6.15;;;2.58;;
27199;SDS011;14714;48.106;11.546;2023-12-28T07:20:54;4.43;;;2.20;;
27199;SDS011;14714;48.106;11.546;2023-12-28T07:23:21;3.88;;;1.85;;
27199;SDS011;14714;48.106;11.546;2023-12-28T07:25:48;2.78;;;1.63;;
27199;SDS011;14714;48.106;11.546;2023-12-28T07:28:15;3.53;;;1.80;;
27199;SDS011;14714;48.106;11.546;2023-12-28T07:30:42;3.13;;;1.73;;
27199;SDS011;14714;48.106;11.546;2023-12-28T07:33:09;4.07;;;1.75;;
27199;SDS011;14714;48.106;11.546;2023-12-28T07:35:36;4.32;;;1.70;;
27199;SDS011;14714;48.106;11.546;2023-12-28T07:38:03;3.00;;;1.85;;
27199;SDS011;14714;48.106;11.546;2023-12-28T07:40:30;2.55;;;1.60;;
27199;SDS011;14714;48.106;11.546;2023-12-28T07:42:57;4.25;;;1.67;;
27199;SDS011;14714;48.106;11.546;2023-12-28T07:45:24;2.25;;;1.50;;
27199;SDS011;14714;48.106;11.546;2023-12-28T07:47:51;3.10;;;1.90;;
27199;SDS011;14714;48.106;11.546;2023-12-28T07:50:19;2.33;;;1.80;;
27199;SDS011;14714;48.106;11.546;2023-12-28T07:52:47;3.03;;;1.80;;
27199;SDS011;14714;48.106;11.546;2023-12-28T07:55:14;4.80;;;1.98;;
27199;SDS011;14714;48.106;11.546;2023-12-28T07:57:42;6.00;;;1.60;;
27199;SDS011;14714;48.106;11.546;2023-12-28T08:00:09;5.40;;;1.90;;
27199;SDS011;14714;48.106;11.546;2023-12-28T08:02:37;8.52;;;2.17;;
27199;SDS011;14714;48.106;11.546;2023-12-28T08:05:04;5.50;;;2.00;;
27199;SDS011;14714;48.106;11.546;2023-12-28T08:07:32;4.53;;;2.15;;
27199;SDS011;14714;48.106;11.546;2023-12-28T08:09:59;5.18;;;1.98;;
27199;SDS011;14714;48.106;11.546;2023-12-28T08:12:27;6.00;;;2.00;;
27199;SDS011;14714;48.106;11.546;2023-12-28T08:14:55;4.05;;;1.80;;
27199;SDS011;14714;48.106;11.546;2023-12-28T08:17:22;4.57;;;1.90;;
27199;SDS011;14714;48.106;11.546;2023-12-28T08:19:50;3.50;;;2.10;;
27199;SDS011;14714;48.106;11.546;2023-12-28T08:22:17;3.90;;;2.10;;
27199;SDS011;14714;48.106;11.546;2023-12-28T08:24:45;5.35;;;2.00;;
27199;SDS011;14714;48.106;11.546;2023-12-28T08:27:12;4.55;;;1.95;;
27199;SDS011;14714;48.106;11.546;2023-12-28T08:29:40;2.80;;;1.92;;
27199;SDS011;14714;48.106;11.546;2023-12-28T08:32:08;6.53;;;2.20;;
27199;SDS011;14714;48.106;11.546;2023-12-28T08:34:37;2.67;;;1.70;;
27199;SDS011;14714;48.106;11.546;2023-12-28T08:37:05;3.08;;;1.90;;
27199;SDS011;14714;48.106;11.546;2023-12-28T08:39:33;2.75;;;1.73;;
27199;SDS011;14714;48.106;11.546;2023-12-28T08:42:00;1.70;;;1.45;;
27199;SDS011;14714;48.106;11.546;2023-12-28T08:44:27;4.55;;;1.80;;
27199;SDS011;14714;48.106;11.546;2023-12-28T08:46:54;4.53;;;1.77;;
27199;SDS011;14714;48.106;11.546;2023-12-28T08:49:21;3.45;;;1.75;;
27199;SDS011;14714;48.106;11.546;2023-12-28T08:51:49;3.45;;;1.98;;
27199;SDS011;14714;48.106;11.546;2023-12-28T08:54:17;3.28;;;1.67;;
27199;SDS011;14714;48.106;11.546;2023-12-28T08:56:44;2.25;;;1.55;;
27199;SDS011;14714;48.106;11.546;2023-12-28T08:59:14;2.22;;;1.45;;
27199;SDS011;14714;48.106;11.546;2023-12-28T09:01:41;2.08;;;1.40;;
27199;SDS011;14714;48.106;11.546;2023-12-28T09:04:08;3.05;;;1.55;;
27199;SDS011;14714;48.106;11.546;2023-12-28T09:06:35;1.80;;;1.45;;
27199;SDS011;14714;48.106;11.546;2023-12-28T09:09:02;3.08;;;1.40;;
27199;SDS011;14714;48.106;11.546;2023-12-28T09:11:30;2.30;;;1.70;;
27199;SDS011;14714;48.106;11.546;2023-12-28T09:13:57;1.85;;;1.33;;
27199;SDS011;14714;48.106;11.546;2023-12-28T09:16:24;4.22;;;1.50;;
27199;SDS011;14714;48.106;11.546;2023-12-28T09:18:51;2.55;;;1.60;;
27199;SDS011;14714;48.106;11.546;2023-12-28T09:21:18;3.25;;;1.50;;
27199;SDS011;14714;48.106;11.546;2023-12-28T09:23:45;1.95;;;1.55;;
27199;SDS011;14714;48.106;11.546;2023-12-28T09:26:12;3.25;;;1.50;;
27199;SDS011;14714;48.106;11.546;2023-12-28T09:28:39;1.67;;;1.40;;
27199;SDS011;14714;48.106;11.546;2023-12-28T09:31:07;5.40;;;1.60;;
27199;SDS011;14714;48.106;11.546;2023-12-28T09:33:34;2.00;;;1.48;;
27199;SDS011;14714;48.106;11.546;2023-12-28T09:36:03;1.92;;;1.50;;
27199;SDS011;14714;48.106;11.546;2023-12-28T09:38:30;2.38;;;1.50;;
27199;SDS011;14714;48.106;11.546;2023-12-28T09:40:58;2.42;;;1.48;;
27199;SDS011;14714;48.106;11.546;2023-12-28T09:43:35;2.42;;;1.40;;
27199;SDS011;14714;48.106;11.546;2023-12-28T09:46:08;1.73;;;1.30;;
27199;SDS011;14714;48.106;11.546;2023-12-28T09:48:37;3.10;;;1.50;;
27199;SDS011;14714;48.106;11.546;2023-12-28T09:51:05;1.85;;;1.30;;
27199;SDS011;14714;48.106;11.546;2023-12-28T09:53:35;1.60;;;1.30;;
27199;SDS011;14714;48.106;11.546;2023-12-28T09:56:02;3.60;;;1.48;;
27199;SDS011;14714;48.106;11.546;2023-12-28T09:58:30;1.88;;;1.30;;
27199;SDS011;14714;48.106;11.546;2023-12-28T10:00:59;1.47;;;1.23;;
27199;SDS011;14714;48.106;11.546;2023-12-28T10:03:27;1.30;;;1.20;;
27199;SDS011;14714;48.106;11.546;2023-12-28T10:05:55;1.70;;;1.40;;
27199;SDS011;14714;48.106;11.546;2023-12-28T10:08:21;1.58;;;1.27;;
27199;SDS011;14714;48.106;11.546;2023-12-28T10:10:49;1.83;;;1.50;;
27199;SDS011;14714;48.106;11.546;2023-12-28T10:13:20;1.30;;;1.20;;
27199;SDS011;14714;48.106;11.546;2023-12-28T10:15:48;2.08;;;1.40;;
27199;SDS011;14714;48.106;11.546;2023-12-28T10:18:18;2.22;;;1.10;;
27199;SDS011;14714;48.106;11.546;2023-12-28T10:20:49;2.00;;;1.50;;
27199;SDS011;14714;48.106;11.546;2023-12-28T10:23:17;2.40;;;1.70;;
27199;SDS011;14714;48.106;11.546;2023-12-28T10:25:45;2.78;;;1.98;;
27199;SDS011;14714;48.106;11.546;2023-12-28T10:28:12;4.43;;;1.63;;
27199;SDS011;14714;48.106;11.546;2023-12-28T10:30:39;2.17;;;1.58;;
27199;SDS011;14714;48.106;11.546;2023-12-28T10:33:08;2.83;;;1.60;;
27199;SDS011;14714;48.106;11.546;2023-12-28T10:35:35;3.17;;;1.40;;
27199;SDS011;14714;48.106;11.546;2023-12-28T10:38:02;2.20;;;1.48;;
27199;SDS011;14714;48.106;11.546;2023-12-28T10:40:33;1.90;;;1.10;;
27199;SDS011;14714;48.106;11.546;2023-12-28T10:43:04;1.75;;;1.40;;
27199;SDS011;14714;48.106;11.546;2023-12-28T10:45:34;2.85;;;1.27;;
27199;SDS011;14714;48.106;11.546;2023-12-28T10:50:40;2.22;;;1.33;;
27199;SDS011;14714;48.106;11.546;2023-12-28T10:56:33;2.35;;;1.30;;
27199;SDS011;14714;48.106;11.546;2023-12-28T11:01:47;2.90;;;1.70;;
27199;SDS011;14714;48.106;11.546;2023-12-28T11:04:21;4.20;;;2.53;;
27199;SDS011;14714;48.106;11.546;2023-12-28T11:07:10;5.30;;;3.45;;
27199;SDS011;14714;48.106;11.546;2023-12-28T11:09:41;5.70;;;3.25;;
27199;SDS011;14714;48.106;11.546;2023-12-28T11:12:08;3.47;;;2.50;;
27199;SDS011;14714;48.106;11.546;2023-12-28T11:14:39;2.22;;;1.70;;
27199;SDS011;14714;48.106;11.546;2023-12-28T11:17:06;3.45;;;1.70;;
27199;SDS011;14714;48.106;11.546;2023-12-28T11:19:41;2.88;;;1.77;;
27199;SDS011;14714;48.106;11.546;2023-12-28T11:22:09;2.38;;;1.65;;
27199;SDS011;14714;48.106;11.546;2023-12-28T11:24:36;2.83;;;1.52;;
27199;SDS011;14714;48.106;11.546;2023-12-28T11:27:03;1.98;;;1.30;;
27199;SDS011;14714;48.106;11.546;2023-12-28T11:29:35;2.00;;;1.40;;
27199;SDS011;14714;48.106;11.546;2023-12-28T11:32:02;2.60;;;1.60;;
27199;SDS011;14714;48.106;11.546;2023-12-28T11:34:29;2.65;;;1.40;;
27199;SDS011;14714;48.106;11.546;2023-12-28T11:37:04;3.35;;;1.40;;
27199;SDS011;14714;48.106;11.546;2023-12-28T11:39:36;3.33;;;1.58;;
27199;SDS011;14714;48.106;11.546;2023-12-28T11:42:06;4.05;;;1.50;;
27199;SDS011;14714;48.106;11.546;2023-12-28T11:44:41;2.35;;;1.40;;
27199;SDS011;14714;48.106;11.546;2023-12-28T11:47:14;1.48;;;1.10;;
27199;SDS011;14714;48.106;11.546;2023-12-28T11:49:41;1.65;;;1.38;;
27199;SDS011;14714;48.106;11.546;2023-12-28T11:52:25;2.00;;;1.30;;
27199;SDS011;14714;48.106;11.546;2023-12-28T11:54:54;2.08;;;1.40;;
27199;SDS011;14714;48.106;11.546;2023-12-28T11:57:22;2.35;;;1.30;;
27199;SDS011;14714;48.106;11.546;2023-12-28T11:59:53;2.35;;;1.60;;
27199;SDS011;14714;48.106;11.546;2023-12-28T12:02:25;2.35;;;1.50;;
27199;SDS011;14714;48.106;11.546;2023-12-28T12:04:55;3.03;;;1.42;;
27199;SDS011;14714;48.106;11.546;2023-12-28T12:07:28;3.65;;;1.42;;
27199;SDS011;14714;48.106;11.546;2023-12-28T12:09:58;2.63;;;1.60;;
27199;SDS011;14714;48.106;11.546;2023-12-28T12:12:27;3.10;;;1.65;;
27199;SDS011;14714;48.106;11.546;2023-12-28T12:14:54;3.10;;;1.60;;
27199;SDS011;14714;48.106;11.546;2023-12-28T12:17:23;2.58;;;1.40;;
27199;SDS011;14714;48.106;11.546;2023-12-28T12:19:51;6.40;;;1.52;;
27199;SDS011;14714;48.106;11.546;2023-12-28T12:22:22;1.98;;;1.20;;
27199;SDS011;14714;48.106;11.546;2023-12-28T12:24:52;3.30;;;1.52;;
27199;SDS011;14714;48.106;11.546;2023-12-28T12:27:20;2.65;;;1.38;;
27199;SDS011;14714;48.106;11.546;2023-12-28T12:29:47;2.00;;;1.40;;
27199;SDS011;14714;48.106;11.546;2023-12-28T12:32:14;3.65;;;1.50;;
27199;SDS011;14714;48.106;11.546;2023-12-28T12:34:41;2.58;;;1.58;;
27199;SDS011;14714;48.106;11.546;2023-12-28T12:37:08;1.92;;;1.33;;
27199;SDS011;14714;48.106;11.546;2023-12-28T12:39:35;1.38;;;1.15;;
27199;SDS011;14714;48.106;11.546;2023-12-28T12:42:03;2.30;;;1.48;;
27199;SDS011;14714;48.106;11.546;2023-12-28T12:44:30;2.47;;;1.50;;
27199;SDS011;14714;48.106;11.546;2023-12-28T12:46:57;3.65;;;1.52;;
27199;SDS011;14714;48.106;11.546;2023-12-28T12:49:27;5.10;;;1.50;;
27199;SDS011;14714;48.106;11.546;2023-12-28T12:51:54;3.55;;;1.48;;
27199;SDS011;14714;48.106;11.546;2023-12-28T12:54:22;3.40;;;1.40;;
27199;SDS011;14714;48.106;11.546;2023-12-28T12:56:49;4.45;;;1.90;;
27199;SDS011;14714;48.106;11.546;2023-12-28T12:59:17;2.53;;;1.63;;
27199;SDS011;14714;48.106;11.546;2023-12-28T13:01:44;3.65;;;1.50;;
27199;SDS011;14714;48.106;11.546;2023-12-28T13:04:16;2.15;;;1.40;;
27199;SDS011;14714;48.106;11.546;2023-12-28T13:06:44;2.55;;;1.80;;
27199;SDS011;14714;48.106;11.546;2023-12-28T13:09:11;1.90;;;1.35;;
27199;SDS011;14714;48.106;11.546;2023-12-28T13:11:38;3.83;;;1.60;;
27199;SDS011;14714;48.106;11.546;2023-12-28T13:14:05;2.28;;;1.42;;
27199;SDS011;14714;48.106;11.546;2023-12-28T13:16:32;2.33;;;1.50;;
27199;SDS011;14714;48.106;11.546;2023-12-28T13:18:59;3.05;;;1.65;;
27199;SDS011;14714;48.106;11.546;2023-12-28T13:21:26;3.42;;;1.40;;
27199;SDS011;14714;48.106;11.546;2023-12-28T13:23:53;2.72;;;1.52;;
27199;SDS011;14714;48.106;11.546;2023-12-28T13:26:20;2.10;;;1.50;;
27199;SDS011;14714;48.106;11.546;2023-12-28T13:28:47;3.00;;;1.80;;
27199;SDS011;14714;48.106;11.546;2023-12-28T13:31:14;2.45;;;1.55;;
27199;SDS011;14714;48.106;11.546;2023-12-28T13:33:41;2.30;;;1.58;;
27199;SDS011;14714;48.106;11.546;2023-12-28T13:36:08;2.33;;;1.52;;
27199;SDS011;14714;48.106;11.546;2023-12-28T13:38:35;2.90;;;1.50;;
27199;SDS011;14714;48.106;11.546;2023-12-28T13:41:02;2.22;;;1.40;;
27199;SDS011;14714;48.106;11.546;2023-12-28T13:43:29;3.33;;;1.45;;
27199;SDS011;14714;48.106;11.546;2023-12-28T13:45:56;3.20;;;1.80;;
27199;SDS011;14714;48.106;11.546;2023-12-28T13:48:23;3.15;;;1.80;;
27199;SDS011;14714;48.106;11.546;2023-12-28T13:50:50;2.20;;;1.58;;
27199;SDS011;14714;48.106;11.546;2023-12-28T13:53:17;5.50;;;1.60;;
27199;SDS011;14714;48.106;11.546;2023-12-28T13:55:44;5.07;;;1.60;;
27199;SDS011;14714;48.106;11.546;2023-12-28T13:58:12;2.08;;;1.30;;
27199;SDS011;14714;48.106;11.546;2023-12-28T14:00:39;1.80;;;1.30;;
27199;SDS011;14714;48.106;11.546;2023-12-28T14:03:06;3.20;;;1.50;;
27199;SDS011;14714;48.106;11.546;2023-12-28T14:05:33;2.75;;;1.60;;
27199;SDS011;14714;48.106;11.546;2023-12-28T14:08:02;2.47;;;1.63;;
27199;SDS011;14714;48.106;11.546;2023-12-28T14:10:29;4.05;;;1.55;;
27199;SDS011;14714;48.106;11.546;2023-12-28T14:12:56;2.00;;;1.50;;
27199;SDS011;14714;48.106;11.546;2023-12-28T14:15:24;2.47;;;1.60;;
27199;SDS011;14714;48.106;11.546;2023-12-28T14:17:51;2.65;;;1.70;;
27199;SDS011;14714;48.106;11.546;2023-12-28T14:20:18;4.68;;;2.22;;
27199;SDS011;14714;48.106;11.546;2023-12-28T14:22:45;3.42;;;2.03;;
27199;SDS011;14714;48.106;11.546;2023-12-28T14:25:12;2.35;;;1.95;;
27199;SDS011;14714;48.106;11.546;2023-12-28T14:27:40;3.60;;;1.98;;
27199;SDS011;14714;48.106;11.546;2023-12-28T14:30:07;2.42;;;1.90;;
27199;SDS011;14714;48.106;11.546;2023-12-28T14:32:37;3.70;;;2.10;;
27199;SDS011;14714;48.106;11.546;2023-12-28T14:35:04;2.53;;;1.88;;
27199;SDS011;14714;48.106;11.546;2023-12-28T14:37:32;3.25;;;1.80;;
27199;SDS011;14714;48.106;11.546;2023-12-28T14:39:59;4.72;;;1.88;;
27199;SDS011;14714;48.106;11.546;2023-12-28T14:42:32;4.22;;;2.38;;
27199;SDS011;14714;48.106;11.546;2023-12-28T14:45:00;3.13;;;2.15;;
27199;SDS011;14714;48.106;11.546;2023-12-28T14:47:29;3.67;;;2.22;;
27199;SDS011;14714;48.106;11.546;2023-12-28T14:49:56;3.28;;;1.85;;